Time;durP1;ratioP1;P1;durP2;ratioP2;P2;SDS_P1;SDS_P2;PMS_P1;PMS_P2;Temp;Humidity;BMP_temperature;BMP_pressure;BME280_temperature;BME280_humidity;BME280_pressure;Samples;Min_cycle;Max_cycle;Signal;HPM_P1;HPM_P2
2021/05/09 06:02:28;;;;;;;17.65;10.68;;;;;;;8.42;68.75;100777.77;1795106;77;25565;-49
2021/05/09 06:05:05;;;;;;;17.47;11.60;;;;;;;8.75;68.72;100778.04;1857776;75;29153;-50
2021/05/09 06:07:41;;;;;;;15.85;10.10;;;;;;;9.06;68.59;100777.20;1876070;75;34627;-51
2021/05/09 06:10:16;;;;;;;16.12;10.32;;;;;;;9.37;68.42;100772.00;1875591;75;35321;-50
2021/05/09 06:12:54;;;;;;;17.85;10.28;;;;;;;9.68;67.52;100778.59;1879792;74;34750;-52
2021/05/09 06:15:30;;;;;;;12.60;9.15;;;;;;;9.98;67.29;100778.48;1840149;77;34752;-52
2021/05/09 06:18:06;;;;;;;12.90;8.40;;;;;;;10.20;65.72;100780.55;1876028;75;35181;-53
2021/05/09 06:20:42;;;;;;;14.18;10.08;;;;;;;10.40;65.20;100784.34;1812841;76;34808;-52
2021/05/09 06:23:24;;;;;;;15.40;10.08;;;;;;;10.61;64.04;100758.30;1859948;75;27934;-51
2021/05/09 06:26:06;;;;;;;13.80;8.30;;;;;;;11.00;63.18;100766.52;1872977;75;34743;-53
2021/05/09 06:28:43;;;;;;;14.95;8.83;;;;;;;11.24;63.88;100758.72;1792704;78;34765;-55
2021/05/09 06:31:18;;;;;;;13.15;8.65;;;;;;;11.58;64.49;100765.08;1868061;75;34724;-53
2021/05/09 06:33:53;;;;;;;14.10;7.80;;;;;;;11.87;62.23;100758.48;1832916;76;34772;-55
2021/05/09 06:36:30;;;;;;;14.80;9.08;;;;;;;12.27;60.90;100751.30;1810349;76;27708;-54
2021/05/09 06:39:06;;;;;;;12.60;7.87;;;;;;;12.39;60.98;100759.44;1787625;78;28427;-54
2021/05/09 06:41:41;;;;;;;11.47;7.67;;;;;;;12.71;60.22;100755.64;1856583;75;32796;-53
2021/05/09 06:44:19;;;;;;;9.58;7.30;;;;;;;12.96;57.14;100758.23;1791656;78;25577;-54
2021/05/09 06:46:54;;;;;;;9.95;6.85;;;;;;;13.06;56.22;100749.01;1874973;74;34661;-54
2021/05/09 06:49:29;;;;;;;8.60;6.55;;;;;;;13.15;55.14;100752.54;1872588;75;35082;-55
2021/05/09 06:52:06;;;;;;;8.25;6.10;;;;;;;13.34;57.25;100740.07;1829238;76;34715;-53
2021/05/09 06:54:42;;;;;;;7.75;5.03;;;;;;;13.76;57.20;100747.25;1784965;78;34739;-54
2021/05/09 06:57:19;;;;;;;8.90;6.07;;;;;;;14.01;52.01;100742.93;1860894;75;28893;-54
2021/05/09 06:59:56;;;;;;;8.13;5.15;;;;;;;14.31;55.23;100739.53;1830422;76;34856;-51
2021/05/09 07:02:32;;;;;;;6.83;4.65;;;;;;;14.56;52.88;100739.23;1861586;75;33697;-52
2021/05/09 07:05:09;;;;;;;7.17;4.20;;;;;;;14.88;51.90;100730.24;1862021;74;25486;-52
2021/05/09 07:07:52;;;;;;;5.60;4.08;;;;;;;15.05;47.99;100749.25;1827529;76;25574;-52
2021/05/09 07:10:30;;;;;;;5.15;4.08;;;;;;;15.02;46.52;100730.05;1878034;75;25465;-52
2021/05/09 07:13:05;;;;;;;5.97;4.25;;;;;;;15.18;44.05;100747.41;1874610;75;34862;-53
2021/05/09 07:15:43;;;;;;;7.90;4.97;;;;;;;15.33;45.46;100733.78;1858020;75;27844;-52
2021/05/09 07:18:20;;;;;;;7.28;5.00;;;;;;;15.58;45.27;100736.66;1793894;78;25615;-53
2021/05/09 07:20:59;;;;;;;9.15;4.20;;;;;;;15.63;44.14;100729.09;1871409;75;25521;-51
2021/05/09 07:23:37;;;;;;;9.38;4.85;;;;;;;15.74;44.82;100725.39;1873592;75;25495;-50
2021/05/09 07:26:12;;;;;;;5.33;3.85;;;;;;;15.90;43.93;100724.23;1830609;76;28055;-52
2021/05/09 07:28:49;;;;;;;7.28;4.87;;;;;;;16.13;43.78;100725.26;1813666;76;27998;-53
2021/05/09 07:31:25;;;;;;;7.35;5.33;;;;;;;16.37;42.77;100723.16;1866682;75;25537;-53
2021/05/09 07:34:00;;;;;;;8.30;5.60;;;;;;;16.44;42.08;100730.22;1855736;75;28931;-53
2021/05/09 07:36:38;;;;;;;9.20;6.00;;;;;;;16.52;39.82;100723.09;1858941;75;34724;-49
2021/05/09 07:39:15;;;;;;;8.38;5.53;;;;;;;16.54;37.99;100738.56;1871073;75;25614;-54
2021/05/09 07:41:50;;;;;;;7.10;4.73;;;;;;;16.53;39.00;100715.92;1873782;75;25486;-53
2021/05/09 07:44:25;;;;;;;6.78;4.83;;;;;;;16.69;39.52;100733.80;1869024;75;25730;-52
2021/05/09 07:47:01;;;;;;;8.60;5.85;;;;;;;16.77;39.18;100717.88;1864752;75;27748;-52
2021/05/09 07:49:37;;;;;;;8.68;5.78;;;;;;;17.01;39.83;100726.44;1870995;75;25513;-52
2021/05/09 07:52:13;;;;;;;8.13;5.30;;;;;;;17.18;36.08;100736.58;1875830;75;25548;-53
2021/05/09 07:54:48;;;;;;;8.23;6.10;;;;;;;17.24;39.27;100720.73;1780420;78;32315;-50
2021/05/09 07:57:23;;;;;;;7.58;4.72;;;;;;;17.38;37.85;100729.94;1873714;75;25630;-52
2021/05/09 07:59:58;;;;;;;7.97;4.75;;;;;;;17.53;39.07;100722.38;1874386;75;25544;-54
2021/05/09 08:02:34;;;;;;;7.77;5.47;;;;;;;17.85;38.92;100717.05;1860375;75;28315;-55
2021/05/09 08:05:13;;;;;;;9.67;6.10;;;;;;;18.06;37.49;100710.03;1866989;75;32775;-53
2021/05/09 08:07:54;;;;;;;8.03;5.15;;;;;;;18.36;37.55;100704.76;1831814;75;25603;-54
2021/05/09 08:10:36;;;;;;;8.65;5.70;;;;;;;18.64;36.53;100706.03;1876722;75;25544;-52
2021/05/09 08:13:12;;;;;;;8.30;4.92;;;;;;;18.57;33.24;100708.61;1871803;75;26376;-53
2021/05/09 08:15:48;;;;;;;7.05;5.15;;;;;;;18.52;36.81;100691.85;1870612;75;25516;-55
2021/05/09 08:18:25;;;;;;;9.68;4.97;;;;;;;18.74;37.51;100691.02;1877692;75;25489;-54
2021/05/09 08:21:02;;;;;;;6.90;5.20;;;;;;;19.16;36.51;100677.53;1814746;76;28333;-53
2021/05/09 08:23:43;;;;;;;6.92;4.53;;;;;;;19.38;35.15;100689.77;1824355;76;26188;-52
2021/05/09 08:26:16;;;;;;;5.87;4.35;;;;;;;19.44;35.16;100687.53;1802638;77;25643;-54
2021/05/09 08:28:55;;;;;;;7.40;4.90;;;;;;;19.49;34.86;100681.75;1800997;78;25659;-53
2021/05/09 08:31:35;;;;;;;7.08;4.70;;;;;;;19.66;31.43;100676.41;1828501;76;25654;-54
2021/05/09 08:34:11;;;;;;;7.05;5.50;;;;;;;19.61;33.22;100682.19;1873227;75;26439;-55
2021/05/09 08:36:46;;;;;;;7.70;4.83;;;;;;;19.55;30.43;100684.44;1874495;75;25854;-54
2021/05/09 08:39:21;;;;;;;4.85;4.30;;;;;;;19.46;32.81;100670.16;1831305;76;25535;-56
2021/05/09 08:41:56;;;;;;;6.57;4.30;;;;;;;19.50;33.76;100664.16;1872414;75;25428;-55
2021/05/09 08:44:33;;;;;;;8.33;4.55;;;;;;;19.65;33.06;100663.87;1835885;75;26119;-53
2021/05/09 08:47:21;;;;;;;8.70;4.92;;;;;;;19.73;32.14;100662.05;1871675;75;25560;-56
2021/05/09 08:50:00;;;;;;;6.17;4.62;;;;;;;19.78;31.90;100663.97;1847177;77;25423;-56
2021/05/09 08:52:48;;;;;;;8.00;5.47;;;;;;;19.99;29.80;100683.94;1793172;78;25804;-55
2021/05/09 08:55:26;;;;;;;7.55;4.90;;;;;;;19.95;30.26;100661.91;1878470;75;25460;-55
2021/05/09 08:58:02;;;;;;;7.05;5.03;;;;;;;19.92;29.71;100662.07;1823401;76;25872;-55
2021/05/09 09:00:43;;;;;;;6.00;4.70;;;;;;;20.00;31.20;100668.47;1786894;78;34758;-56
2021/05/09 09:03:20;;;;;;;8.43;5.80;;;;;;;20.35;31.22;100671.66;1801525;78;25585;-53
2021/05/09 09:05:56;;;;;;;8.15;5.30;;;;;;;20.34;29.72;100698.31;1869970;75;26079;-52
2021/05/09 09:08:52;;;;;;;5.90;5.03;;;;;;;20.05;28.56;100712.10;1811162;75;27727;-53
2021/05/09 09:11:28;;;;;;;6.95;4.97;;;;;;;19.67;28.57;100684.87;1872664;75;25549;-52
2021/05/09 09:14:11;;;;;;;9.93;5.05;;;;;;;19.23;27.69;100694.14;1788307;78;25655;-53
2021/05/09 09:16:51;;;;;;;6.92;5.03;;;;;;;18.88;29.21;100678.25;1866212;75;25465;-52
2021/05/09 09:19:26;;;;;;;10.03;5.87;;;;;;;18.66;30.42;100677.70;1870717;75;25490;-52
2021/05/09 09:22:02;;;;;;;7.23;5.60;;;;;;;18.46;31.19;100657.09;1775270;78;27995;-51
2021/05/09 09:24:43;;;;;;;6.95;4.75;;;;;;;18.51;30.79;100642.90;1872248;74;25859;-52
2021/05/09 09:27:24;;;;;;;7.33;4.37;;;;;;;18.63;29.89;100642.83;1802849;78;25624;-53
2021/05/09 09:30:03;;;;;;;7.47;4.55;;;;;;;18.58;31.15;100652.69;1827502;76;25565;-52
2021/05/09 09:32:39;;;;;;;6.95;4.83;;;;;;;18.45;30.32;100646.48;1827112;76;25575;-52
2021/05/09 09:35:28;;;;;;;8.70;5.67;;;;;;;18.36;30.35;100646.67;1863266;75;28291;-52
2021/05/09 09:38:22;;;;;;;9.93;6.35;;;;;;;18.56;30.87;100661.80;1873359;75;25612;-51
2021/05/09 09:41:22;;;;;;;8.55;5.15;;;;;;;18.56;31.99;100656.33;1873274;75;26174;-52
2021/05/09 09:44:11;;;;;;;8.70;5.25;;;;;;;18.52;32.55;100650.77;1802465;78;25950;-52
2021/05/09 09:46:51;;;;;;;8.25;5.15;;;;;;;18.69;31.57;100640.59;1873904;74;25644;-50
2021/05/09 09:49:30;;;;;;;8.75;5.28;;;;;;;18.65;31.50;100641.30;1824844;75;25607;-52
2021/05/09 09:52:09;;;;;;;6.20;4.62;;;;;;;18.72;32.90;100655.75;1874347;75;25439;-51
2021/05/09 09:59:05;;;;;;;8.23;5.10;;;;;;;19.07;32.91;100643.23;1791421;78;25610;-50
2021/05/09 10:01:40;;;;;;;4.90;3.72;;;;;;;19.03;32.97;100645.35;1875826;75;25452;-48
2021/05/09 10:04:15;;;;;;;5.90;4.37;;;;;;;19.10;32.36;100645.27;1896981;72;25487;-51
2021/05/09 10:06:52;;;;;;;7.20;3.87;;;;;;;18.99;32.24;100626.64;1830706;75;25498;-51
2021/05/09 10:09:28;;;;;;;6.60;4.83;;;;;;;19.09;32.43;100642.33;1852091;75;39955;-52
2021/05/09 10:12:05;;;;;;;7.55;4.53;;;;;;;19.32;33.21;100626.74;1814435;75;35119;-49
2021/05/09 10:14:41;;;;;;;6.33;4.95;;;;;;;19.46;31.98;100625.45;1853737;75;29709;-52
2021/05/09 10:17:19;;;;;;;7.67;4.53;;;;;;;19.53;31.76;100637.93;1858386;75;27740;-53
2021/05/09 10:19:55;;;;;;;6.12;4.25;;;;;;;19.50;31.55;100621.62;1832052;76;25504;-50
2021/05/09 10:22:35;;;;;;;5.17;4.37;;;;;;;19.59;33.14;100618.08;1861403;75;28662;-49
2021/05/09 10:25:35;;;;;;;5.33;3.77;;;;;;;19.84;31.50;100618.39;1876522;75;25694;-52
2021/05/09 10:28:21;;;;;;;4.97;3.60;;;;;;;19.88;30.59;100629.63;1796259;78;25625;-49
2021/05/09 10:30:58;;;;;;;6.15;3.95;;;;;;;19.76;30.54;100634.70;1873919;75;25888;-59
2021/05/09 10:33:42;;;;;;;7.10;4.33;;;;;;;19.75;31.57;100621.34;1858485;75;33869;-58
2021/05/09 10:36:26;;;;;;;7.70;4.12;;;;;;;19.86;32.72;100612.73;1834861;76;26225;-59
2021/05/09 10:39:15;;;;;;;4.80;3.98;;;;;;;20.12;30.99;100620.24;1803935;78;26434;-60
2021/05/09 10:41:59;;;;;;;4.70;3.85;;;;;;;20.10;31.26;100616.30;1873100;75;25560;-59
2021/05/09 10:44:45;;;;;;;6.85;4.05;;;;;;;20.13;31.09;100608.70;1831933;75;25903;-58
2021/05/09 10:47:33;;;;;;;5.67;3.80;;;;;;;20.11;31.23;100611.81;1833002;76;25625;-60
2021/05/09 10:50:24;;;;;;;9.73;4.20;;;;;;;20.28;32.24;100592.67;1797277;78;25604;-60
2021/05/09 10:52:59;;;;;;;5.92;3.55;;;;;;;20.35;32.12;100593.37;1798774;78;26402;-59
2021/05/09 10:55:45;;;;;;;7.75;4.33;;;;;;;20.39;29.39;100593.42;1821269;76;27781;-57
2021/05/09 10:58:46;;;;;;;4.58;3.67;;;;;;;20.28;30.57;100598.75;1872743;75;25657;-57
2021/05/09 11:01:28;;;;;;;5.33;3.72;;;;;;;20.19;30.54;100587.99;1803591;78;25639;-58
2021/05/09 11:04:14;;;;;;;5.37;3.92;;;;;;;20.19;30.75;100600.35;1802993;78;25599;-57
2021/05/09 11:07:09;;;;;;;5.10;3.80;;;;;;;20.11;30.29;100588.47;1852908;75;38866;-57
2021/05/09 11:09:44;;;;;;;5.12;3.45;;;;;;;20.11;29.80;100589.84;1838266;75;26116;-59
2021/05/09 11:12:22;;;;;;;3.90;3.15;;;;;;;20.02;29.69;100581.05;1792631;78;25592;-58
2021/05/09 11:15:13;;;;;;;6.53;3.10;;;;;;;20.00;30.87;100568.27;1806657;78;25669;-54
2021/05/09 11:17:49;;;;;;;5.83;3.10;;;;;;;20.29;31.57;100561.88;1873090;75;25485;-55
2021/05/09 11:20:26;;;;;;;5.80;3.50;;;;;;;20.57;31.50;100558.77;1829062;75;25508;-53
2021/05/09 11:23:01;;;;;;;4.87;3.53;;;;;;;20.82;29.41;100561.91;1862379;75;31855;-57
2021/05/09 11:25:36;;;;;;;4.17;2.87;;;;;;;20.79;29.29;100575.02;1843951;75;26127;-53
2021/05/09 11:28:14;;;;;;;6.05;3.45;;;;;;;20.74;29.51;100578.64;1802434;78;25419;-59
2021/05/09 11:30:51;;;;;;;3.90;3.40;;;;;;;20.61;29.48;100573.34;1854421;75;31567;-58
2021/05/09 11:33:53;;;;;;;4.97;3.40;;;;;;;20.65;29.78;100563.80;1778246;78;38349;-50
2021/05/09 11:36:32;;;;;;;7.17;2.92;;;;;;;20.78;30.12;100551.42;1869204;75;25168;-55
2021/05/09 11:39:35;;;;;;;4.50;3.15;;;;;;;20.98;29.47;100556.80;1838640;77;25521;-59
2021/05/09 11:42:15;;;;;;;3.83;3.00;;;;;;;20.90;29.51;100555.91;1876001;75;26184;-59
2021/05/09 11:44:52;;;;;;;4.45;2.92;;;;;;;20.90;28.12;100564.94;1874750;75;25847;-54
2021/05/09 11:47:34;;;;;;;5.78;3.50;;;;;;;20.78;29.19;100552.80;1840929;77;25658;-59
2021/05/09 11:50:10;;;;;;;3.90;3.05;;;;;;;20.66;28.48;100556.56;1872293;75;25513;-59
2021/05/09 11:52:46;;;;;;;4.33;3.02;;;;;;;20.53;29.66;100551.85;1789376;78;25596;-59
2021/05/09 11:55:22;;;;;;;3.95;3.22;;;;;;;20.59;29.72;100541.91;1869900;75;26487;-53
2021/05/09 11:57:57;;;;;;;5.40;3.30;;;;;;;20.50;29.27;100535.32;1812741;75;32289;-52
2021/05/09 12:00:33;;;;;;;3.52;3.10;;;;;;;20.56;30.57;100528.33;1819066;75;27840;-53
2021/05/09 12:03:08;;;;;;;4.22;2.67;;;;;;;20.90;28.53;100547.06;1874726;75;25695;-52
2021/05/09 12:05:43;;;;;;;5.20;2.83;;;;;;;20.94;29.22;100537.48;1828488;76;25969;-50
2021/05/09 12:08:20;;;;;;;5.30;3.00;;;;;;;20.81;28.93;100527.32;1791741;78;25584;-51
2021/05/09 12:10:57;;;;;;;4.08;3.10;;;;;;;20.75;29.48;100526.05;1859450;75;29853;-52
2021/05/09 12:13:33;;;;;;;4.00;3.00;;;;;;;20.84;29.60;100527.14;1873035;75;25463;-51
2021/05/09 12:16:11;;;;;;;4.40;3.00;;;;;;;20.96;29.86;100521.43;1861673;75;27737;-52
2021/05/09 12:18:47;;;;;;;3.42;2.70;;;;;;;21.05;29.05;100518.39;1837362;76;25524;-53
2021/05/09 12:21:28;;;;;;;4.53;2.87;;;;;;;21.14;28.41;100531.84;1826427;76;25543;-51
2021/05/09 12:24:07;;;;;;;3.87;3.17;;;;;;;21.09;27.78;100539.84;1829845;76;25706;-53
2021/05/09 12:27:07;;;;;;;3.17;2.60;;;;;;;21.08;29.81;100508.02;1830528;76;25577;-52
2021/05/09 12:29:57;;;;;;;4.42;2.60;;;;;;;21.22;30.38;100519.17;1876516;75;25448;-50
2021/05/09 12:32:34;;;;;;;5.15;2.58;;;;;;;21.33;29.17;100502.77;1801678;78;25616;-60
2021/05/09 12:35:15;;;;;;;3.02;2.62;;;;;;;21.38;29.21;100517.56;1787460;78;25546;-57
2021/05/09 12:37:58;;;;;;;4.53;2.40;;;;;;;21.45;28.70;100518.22;1877694;75;26373;-57
2021/05/09 12:40:38;;;;;;;5.47;2.70;;;;;;;21.69;29.24;100494.10;1794152;78;25481;-57
2021/05/09 12:43:14;;;;;;;2.20;2.00;;;;;;;22.14;29.48;100473.61;1755117;79;80393;-56
2021/05/09 12:49:57;;;;;;;2.37;2.12;;;;;;;22.75;28.59;100499.38;1823465;77;25621;-57
2021/05/09 12:52:23;;;;;;;3.30;1.95;;;;;;;22.92;28.85;100484.08;1705747;80;105603;-57
2021/05/09 12:54:57;;;;;;;3.30;2.40;;;;;;;23.16;28.67;100470.78;1726153;76;41892;-56
2021/05/09 12:57:32;;;;;;;3.33;2.50;;;;;;;23.42;28.06;100486.97;1789870;74;48280;-56
2021/05/09 13:00:59;;;;;;;;;;;;;;;23.40;27.74;100486.58;1769104;76;25644;-57
2021/05/09 13:06:50;;;;;;;2.52;1.98;;;;;;;23.44;27.44;100470.80;1787379;78;25688;-56
2021/05/09 13:09:16;;;;;;;5.80;2.10;;;;;;;23.45;26.59;100464.11;1735624;80;50685;-58
2021/05/09 13:13:26;;;;;;;56.05;3.85;;;;;;;23.31;25.71;100472.39;1793669;78;25709;-62
2021/05/09 13:15:52;;;;;;;9.75;2.00;;;;;;;22.92;25.46;100486.23;1744776;79;25734;-61
2021/05/09 13:18:18;;;;;;;2.67;2.02;;;;;;;22.66;25.71;100476.30;1765949;79;27515;-63
2021/05/09 13:20:44;;;;;;;3.70;2.30;;;;;;;22.56;25.43;100490.82;1770783;79;25914;-59
2021/05/09 13:23:10;;;;;;;3.62;2.10;;;;;;;22.63;26.29;100472.93;1765063;79;29264;-59
2021/05/09 13:26:23;;;;;;;2.08;1.80;;;;;;;22.60;26.82;100454.41;1732100;77;32717;-60
2021/05/09 13:28:50;;;;;;;2.50;2.00;;;;;;;22.61;27.29;100438.08;1691884;82;25644;-59
2021/05/09 13:32:53;;;;;;;2.15;1.95;;;;;;;23.00;28.08;100444.88;1753637;76;38836;-62
2021/05/09 13:35:19;;;;;;;2.33;2.12;;;;;;;23.12;26.86;100449.48;1713682;79;36804;-61
2021/05/09 13:37:45;;;;;;;2.27;1.95;;;;;;;23.07;26.09;100448.49;1685064;84;27533;-61
2021/05/09 13:40:13;;;;;;;3.35;1.80;;;;;;;23.01;26.01;100436.81;1711824;79;39440;-61
2021/05/09 13:42:40;;;;;;;2.47;2.10;;;;;;;22.88;25.68;100433.05;1725071;82;25785;-61
2021/05/09 13:47:09;;;;;;;2.75;1.90;;;;;;;22.77;25.66;100443.84;1815330;74;44353;-61
2021/05/09 13:49:35;;;;;;;2.02;1.77;;;;;;;22.56;25.37;100436.47;1752332;79;31598;-60
2021/05/09 13:52:02;;;;;;;2.87;1.90;;;;;;;22.46;26.69;100427.58;1775386;79;27539;-61
2021/05/09 13:55:57;;;;;;;4.45;2.00;;;;;;;22.60;26.21;100426.06;1652059;80;37816;-61
2021/05/09 13:58:32;;;;;;;2.12;1.90;;;;;;;22.57;26.71;100430.36;1795354;74;51945;-61
2021/05/09 14:02:22;;;;;;;2.52;1.70;;;;;;;22.45;25.23;100451.38;1759145;79;41697;-60
2021/05/09 14:04:48;;;;;;;3.30;1.98;;;;;;;22.31;26.64;100439.10;1724606;79;56104;-61
2021/05/09 14:28:04;;;;;;;2.35;1.77;;;;;;;22.18;27.86;100409.67;1725943;78;30720;-56
2021/05/09 14:30:31;;;;;;;1.90;1.80;;;;;;;22.13;27.64;100405.91;1702821;78;30286;-57
2021/05/09 14:32:59;;;;;;;2.30;2.10;;;;;;;22.14;27.59;100397.86;1680719;82;27937;-57
2021/05/09 14:35:26;;;;;;;1.77;1.67;;;;;;;22.16;27.87;100395.50;1703877;82;25852;-56
2021/05/09 14:37:57;;;;;;;2.08;1.72;;;;;;;22.11;27.69;100394.48;1700764;82;25800;-56
2021/05/09 14:40:27;;;;;;;2.20;1.80;;;;;;;22.03;27.35;100387.95;1704225;82;25762;-57
2021/05/09 14:42:54;;;;;;;2.27;1.77;;;;;;;21.98;27.84;100390.47;1705055;82;25741;-57
2021/05/09 14:45:22;;;;;;;2.10;1.60;;;;;;;21.97;27.52;100385.56;1707013;82;27574;-56
2021/05/09 14:47:48;;;;;;;2.42;1.52;;;;;;;21.96;28.07;100379.06;1685660;82;25642;-56
2021/05/09 14:50:17;;;;;;;4.40;1.90;;;;;;;21.90;27.83;100381.39;1705711;82;25720;-56
2021/05/09 14:52:45;;;;;;;2.75;2.12;;;;;;;21.78;27.70;100382.50;1722780;81;25739;-56
2021/05/09 14:55:12;;;;;;;3.75;2.20;;;;;;;21.72;28.29;100380.48;1690613;83;25868;-56
2021/05/09 14:57:41;;;;;;;2.05;1.52;;;;;;;21.66;27.86;100373.19;1689527;83;27534;-56
2021/05/09 15:00:11;;;;;;;3.12;1.50;;;;;;;21.58;27.61;100388.84;1719314;81;34886;-56
2021/05/09 15:02:38;;;;;;;2.40;1.80;;;;;;;21.45;27.67;100369.64;1702701;82;25759;-56
2021/05/09 15:05:07;;;;;;;2.98;1.75;;;;;;;21.36;28.26;100382.34;1711487;82;25739;-56
2021/05/09 15:07:34;;;;;;;3.55;1.77;;;;;;;21.31;28.24;100379.95;1706947;82;26426;-56
2021/05/09 15:10:03;;;;;;;3.60;1.65;;;;;;;21.24;27.97;100400.52;1707363;82;27533;-56
2021/05/09 15:12:29;;;;;;;2.20;1.90;;;;;;;21.10;27.68;100368.77;1706394;82;26205;-55
2021/05/09 15:14:55;;;;;;;2.85;2.00;;;;;;;21.01;28.93;100373.99;1706685;82;25860;-59
2021/05/09 15:17:22;;;;;;;4.00;1.70;;;;;;;20.94;28.76;100367.03;1705066;82;25682;-58
2021/05/09 15:19:49;;;;;;;2.33;2.12;;;;;;;20.90;28.98;100364.84;1706965;82;25709;-59
2021/05/09 15:22:15;;;;;;;5.42;3.85;;;;;;;20.85;28.70;100385.20;1706656;82;28252;-59
2021/05/09 15:24:42;;;;;;;7.25;5.28;;;;;;;20.79;29.37;100368.86;1712632;82;25951;-59
2021/05/09 15:27:09;;;;;;;9.20;6.25;;;;;;;20.76;29.14;100370.98;1688716;82;26425;-60
2021/05/09 15:29:37;;;;;;;6.67;4.15;;;;;;;20.70;29.29;100365.05;1703168;82;25678;-60
2021/05/09 15:32:05;;;;;;;3.52;1.90;;;;;;;20.67;29.29;100358.11;1703452;82;25740;-60
2021/05/09 15:34:36;;;;;;;2.77;1.85;;;;;;;20.61;29.20;100359.01;1704230;82;27462;-60
2021/05/09 15:37:03;;;;;;;3.05;1.80;;;;;;;20.55;29.01;100343.23;1710529;82;26214;-59
2021/05/09 15:39:34;;;;;;;1.95;1.80;;;;;;;20.50;29.69;100352.62;1703279;82;25754;-60
2021/05/09 15:42:02;;;;;;;2.72;1.72;;;;;;;20.46;29.46;100347.05;1708191;82;26004;-61
2021/05/09 15:44:33;;;;;;;2.40;1.67;;;;;;;20.40;29.73;100337.59;1708023;82;25780;-60
2021/05/09 15:47:02;;;;;;;2.15;1.72;;;;;;;20.38;30.03;100335.80;1703113;82;28282;-60
2021/05/09 15:49:30;;;;;;;3.02;1.57;;;;;;;20.35;29.77;100343.41;1705323;82;25704;-61
2021/05/09 15:51:58;;;;;;;2.95;2.20;;;;;;;20.29;29.33;100351.17;1702507;82;25752;-59
2021/05/09 15:54:26;;;;;;;1.95;1.42;;;;;;;20.23;29.88;100340.33;1704640;82;25724;-60
2021/05/09 15:56:53;;;;;;;2.50;1.50;;;;;;;20.19;30.18;100338.09;1704100;82;25715;-60
2021/05/09 15:59:20;;;;;;;4.67;1.67;;;;;;;20.19;29.92;100337.31;1704698;82;27485;-60
2021/05/09 16:01:47;;;;;;;3.17;1.77;;;;;;;20.15;29.85;100342.17;1702469;82;26418;-60
2021/05/09 16:04:14;;;;;;;2.55;1.90;;;;;;;20.10;29.96;100332.89;1675878;82;25827;-61
2021/05/09 16:06:40;;;;;;;1.70;1.60;;;;;;;20.05;29.98;100340.09;1699756;82;25832;-60
2021/05/09 16:09:08;;;;;;;1.70;1.60;;;;;;;19.99;29.96;100333.92;1700462;82;25817;-61
2021/05/09 16:11:36;;;;;;;1.42;1.25;;;;;;;19.91;29.83;100325.59;1701853;82;28091;-61
2021/05/09 16:14:04;;;;;;;2.72;1.80;;;;;;;19.84;29.99;100323.34;1712878;82;26145;-62
2021/05/09 16:16:33;;;;;;;4.75;1.95;;;;;;;19.75;30.06;100327.70;1703766;82;25719;-55
2021/05/09 16:19:00;;;;;;;2.30;1.62;;;;;;;19.69;30.02;100329.95;1708168;82;25767;-55
2021/05/09 16:21:27;;;;;;;1.65;1.50;;;;;;;19.66;29.97;100323.05;1707296;82;25836;-55
2021/05/09 16:23:55;;;;;;;4.42;1.98;;;;;;;19.64;30.26;100322.64;1704604;82;27463;-55
2021/05/09 16:26:21;;;;;;;2.17;1.70;;;;;;;19.65;30.14;100325.57;1706867;82;25517;-55
2021/05/09 16:28:48;;;;;;;1.95;1.75;;;;;;;19.65;30.59;100321.45;1698300;82;26565;-56
2021/05/09 16:31:15;;;;;;;1.52;1.32;;;;;;;19.64;29.80;100317.93;1703927;82;25903;-55
2021/05/09 16:33:43;;;;;;;2.58;1.90;;;;;;;19.63;30.16;100325.97;1702171;82;25714;-53
2021/05/09 16:36:11;;;;;;;2.25;1.50;;;;;;;19.59;30.58;100320.99;1701744;82;27575;-55
2021/05/09 16:38:38;;;;;;;4.40;1.77;;;;;;;19.57;30.27;100328.81;1699346;82;25825;-56
2021/05/09 16:41:04;;;;;;;1.90;1.70;;;;;;;19.54;30.60;100334.44;1701976;82;25706;-57
2021/05/09 16:43:33;;;;;;;1.65;1.40;;;;;;;19.51;30.51;100333.02;1697246;82;26634;-57
2021/05/09 16:46:01;;;;;;;2.83;1.52;;;;;;;19.48;30.58;100333.19;1696760;82;25748;-56
2021/05/09 16:48:27;;;;;;;2.98;1.35;;;;;;;19.46;30.64;100332.77;1699151;82;27535;-56
2021/05/09 16:50:54;;;;;;;3.47;1.75;;;;;;;19.42;30.69;100316.81;1701103;82;25773;-56
2021/05/09 16:53:40;;;;;;;3.47;1.60;;;;;;;19.39;30.53;100340.30;1703829;82;25722;-56
2021/05/09 16:55:55;;;;;;;4.90;1.70;;;;;;;19.36;30.99;100321.83;1700704;82;25794;-55
2021/05/09 16:58:22;;;;;;;1.80;1.65;;;;;;;19.33;31.10;100325.90;1703759;82;25812;-56
2021/05/09 17:00:48;;;;;;;2.10;1.82;;;;;;;19.30;30.86;100325.25;1699393;82;27549;-56
2021/05/09 17:03:14;;;;;;;3.30;1.70;;;;;;;19.26;31.32;100319.72;1705284;82;25684;-56
2021/05/09 17:05:41;;;;;;;2.35;1.72;;;;;;;19.24;31.35;100320.67;1695454;82;25761;-56
2021/05/09 17:08:07;;;;;;;2.17;1.60;;;;;;;19.20;30.89;100338.41;1704187;82;25783;-56
2021/05/09 17:10:34;;;;;;;1.85;1.67;;;;;;;19.18;31.26;100324.28;1699847;82;25725;-55
2021/05/09 17:13:07;;;;;;;5.28;1.77;;;;;;;19.13;31.53;100330.66;1704935;82;27485;-55
2021/05/09 17:15:30;;;;;;;8.95;1.60;;;;;;;19.10;31.58;100321.20;1699578;82;25803;-54
2021/05/09 17:17:57;;;;;;;2.20;1.40;;;;;;;19.06;31.53;100316.25;1701320;82;26306;-56
2021/05/09 17:20:23;;;;;;;4.47;1.80;;;;;;;19.03;31.90;100315.61;1697889;82;25785;-56
2021/05/09 17:22:50;;;;;;;3.30;1.80;;;;;;;18.97;31.95;100317.09;1697570;82;25766;-56
2021/05/09 17:25:18;;;;;;;1.77;1.65;;;;;;;18.91;32.11;100322.05;1697490;82;27568;-54
2021/05/09 17:27:44;;;;;;;4.83;2.55;;;;;;;18.85;32.00;100316.09;1707274;82;26211;-55
2021/05/09 17:30:14;;;;;;;1.72;1.50;;;;;;;18.80;32.15;100322.44;1706232;82;25744;-55
2021/05/09 17:32:43;;;;;;;2.30;1.57;;;;;;;18.74;32.18;100326.03;1707067;82;25835;-56
2021/05/09 17:35:11;;;;;;;1.85;1.65;;;;;;;18.67;32.36;100321.80;1698699;82;25770;-56
2021/05/09 17:37:37;;;;;;;3.62;1.60;;;;;;;18.62;32.43;100320.14;1690317;82;27480;-55
2021/05/09 17:40:06;;;;;;;3.75;2.00;;;;;;;18.56;32.56;100320.79;1704536;82;25786;-55
2021/05/09 17:42:32;;;;;;;2.65;1.60;;;;;;;18.50;32.58;100326.36;1702997;82;25753;-56
2021/05/09 17:44:59;;;;;;;10.38;3.90;;;;;;;18.44;32.66;100325.88;1705065;82;25875;-55
2021/05/09 17:47:30;;;;;;;4.20;2.30;;;;;;;18.37;32.98;100322.97;1703973;82;25843;-55
2021/05/09 17:49:58;;;;;;;2.87;1.98;;;;;;;18.28;33.06;100317.13;1702154;82;27825;-55
2021/05/09 17:52:25;;;;;;;4.85;1.72;;;;;;;18.21;33.01;100312.89;1701720;82;25727;-55
2021/05/09 17:54:53;;;;;;;7.15;2.70;;;;;;;18.15;33.42;100306.69;1701413;82;26189;-56
2021/05/09 17:57:21;;;;;;;3.50;2.77;;;;;;;18.05;33.58;100310.81;1709694;82;26275;-56
2021/05/09 17:59:51;;;;;;;6.12;3.08;;;;;;;17.95;33.65;100307.28;1705145;82;25772;-56
2021/05/09 18:02:19;;;;;;;5.50;2.65;;;;;;;17.86;33.87;100312.38;1707377;82;27485;-55
2021/05/09 18:04:46;;;;;;;6.40;4.70;;;;;;;17.77;34.05;100313.69;1706066;82;26388;-54
2021/05/09 18:07:12;;;;;;;24.95;13.08;;;;;;;17.66;34.04;100313.45;1685429;82;25736;-54
2021/05/09 18:09:41;;;;;;;29.15;15.28;;;;;;;17.57;34.35;100315.58;1708731;82;27364;-54
2021/05/09 18:12:08;;;;;;;21.35;10.60;;;;;;;17.47;34.57;100321.01;1704329;82;26034;-54
2021/05/09 18:14:37;;;;;;;30.57;14.85;;;;;;;17.36;34.74;100325.65;1692406;82;27658;-57
2021/05/09 18:17:23;;;;;;;26.50;13.10;;;;;;;17.29;35.05;100325.48;1676500;82;25850;-57
2021/05/09 18:22:34;;;;;;;7.83;6.60;;;;;;;17.08;35.53;100327.12;1701155;82;26056;-58
2021/05/09 18:25:02;;;;;;;7.05;4.80;;;;;;;16.96;35.67;100328.00;1703525;82;25742;-58
2021/05/09 18:27:29;;;;;;;13.45;3.85;;;;;;;16.87;35.83;100336.13;1709617;82;27468;-58
2021/05/09 18:29:56;;;;;;;5.25;3.70;;;;;;;16.78;35.99;100335.69;1704922;82;26772;-56
2021/05/09 18:32:23;;;;;;;6.78;4.20;;;;;;;16.72;36.10;100336.28;1706734;82;26497;-58
2021/05/09 18:34:50;;;;;;;8.30;4.22;;;;;;;16.62;36.29;100332.14;1707436;82;25729;-57
2021/05/09 18:37:17;;;;;;;5.45;3.72;;;;;;;16.56;36.56;100341.14;1703344;82;25824;-57
2021/05/09 18:39:44;;;;;;;7.47;4.30;;;;;;;16.48;36.67;100344.84;1707732;82;28246;-58
2021/05/09 18:42:11;;;;;;;6.97;4.83;;;;;;;16.43;36.88;100356.80;1702132;82;27394;-59